createdAt,value
2018-10-07T00:00:40.300Z,46.80
2018-10-07T00:01:40.267Z,47.50
2018-10-07T00:02:40.257Z,47.70
2018-10-07T00:03:40.242Z,43.40
2018-10-07T00:04:40.252Z,49.80
2018-10-07T00:05:40.225Z,54.10
2018-10-07T00:06:40.243Z,52.70
2018-10-07T00:07:40.206Z,57.50
2018-10-07T00:08:40.191Z,57.50
2018-10-07T00:09:40.181Z,55.20
2018-10-07T00:10:40.172Z,57.00
2018-10-07T00:11:40.166Z,55.40
2018-10-07T00:12:40.171Z,49.20
2018-10-07T00:13:40.137Z,59.40
2018-10-07T00:14:40.150Z,51.20
2018-10-07T00:15:40.126Z,58.80
2018-10-07T00:16:40.110Z,58.50
2018-10-07T00:17:40.123Z,64.90
2018-10-07T00:18:40.112Z,59.30
2018-10-07T00:19:40.076Z,61.30
2018-10-07T00:20:40.063Z,56.30
2018-10-07T00:21:40.050Z,60.20
2018-10-07T00:22:40.039Z,63.00
2018-10-07T00:23:40.049Z,61.20
2018-10-07T00:24:40.081Z,62.80
2018-10-07T00:25:40.018Z,62.70
2018-10-07T00:26:39.996Z,62.40
2018-10-07T00:27:39.987Z,68.00
2018-10-07T00:28:39.980Z,70.80
2018-10-07T00:29:39.972Z,71.50
2018-10-07T00:30:39.980Z,75.50
2018-10-07T00:31:39.949Z,75.90
2018-10-07T00:32:39.940Z,67.40
2018-10-07T00:33:39.940Z,70.00
2018-10-07T00:34:39.910Z,70.80
2018-10-07T00:35:39.903Z,63.00
2018-10-07T00:36:39.898Z,73.80
2018-10-07T00:37:39.892Z,66.00
2018-10-07T00:38:39.901Z,69.20
2018-10-07T00:39:39.924Z,75.00
2018-10-07T00:40:39.854Z,73.30
2018-10-07T00:41:39.836Z,64.80
2018-10-07T00:42:39.836Z,75.80
2018-10-07T00:43:39.837Z,67.20
2018-10-07T00:44:39.809Z,71.10
2018-10-07T00:45:39.794Z,68.70
2018-10-07T00:46:39.812Z,69.10
2018-10-07T00:47:39.775Z,61.00
2018-10-07T00:48:39.786Z,63.20
2018-10-07T00:49:39.759Z,56.70
2018-10-07T00:50:39.747Z,60.10
2018-10-07T00:51:39.733Z,56.00
2018-10-07T00:52:39.720Z,63.50
2018-10-07T00:53:39.728Z,72.40
2018-10-07T00:54:39.709Z,56.80
2018-10-07T00:55:39.692Z,59.80
2018-10-07T00:56:39.682Z,51.60
2018-10-07T00:57:39.677Z,66.80
2018-10-07T00:58:39.673Z,65.30
2018-10-07T00:59:39.653Z,81.50
2018-10-07T01:00:39.643Z,73.80
2018-10-07T01:01:39.638Z,73.30
2018-10-07T01:02:39.621Z,92.00
2018-10-07T01:03:39.638Z,81.90
2018-10-07T01:04:39.593Z,74.10
2018-10-07T01:05:39.579Z,73.60
2018-10-07T01:06:39.567Z,68.50
2018-10-07T01:07:39.560Z,89.40
2018-10-07T01:08:39.574Z,83.80
2018-10-07T01:09:39.543Z,78.30
2018-10-07T01:10:39.548Z,75.70
2018-10-07T01:11:39.522Z,80.50
2018-10-07T01:12:39.531Z,83.20
2018-10-07T01:13:39.497Z,93.00
2018-10-07T01:14:39.488Z,86.20
2018-10-07T01:15:39.481Z,93.40
2018-10-07T01:16:45.970Z,83.20
2018-10-07T01:17:39.461Z,85.20
2018-10-07T01:18:39.463Z,84.20
2018-10-07T01:19:39.433Z,82.90
2018-10-07T01:20:39.419Z,85.40
2018-10-07T01:21:39.406Z,83.40
2018-10-07T01:22:39.395Z,77.30
2018-10-07T01:23:39.406Z,78.60
2018-10-07T01:24:39.397Z,86.20
2018-10-07T01:25:39.369Z,85.70
2018-10-07T01:26:39.363Z,76.80
2018-10-07T01:27:39.345Z,89.70
2018-10-07T01:28:39.333Z,93.80
2018-10-07T01:29:39.339Z,90.50
2018-10-07T01:30:39.315Z,89.20
2018-10-07T01:31:39.302Z,98.80
2018-10-07T01:32:39.288Z,94.70
2018-10-07T01:33:39.275Z,91.00
2018-10-07T01:34:39.281Z,95.40
2018-10-07T01:35:39.255Z,94.20
2018-10-07T01:36:39.247Z,91.30
2018-10-07T01:37:39.240Z,89.80
2018-10-07T01:38:39.268Z,100.50
2018-10-07T01:39:39.247Z,90.40
2018-10-07T01:40:39.201Z,90.40
2018-10-07T01:41:39.207Z,92.60
2018-10-07T01:42:39.176Z,97.70
2018-10-07T01:43:39.187Z,98.30
2018-10-07T01:44:39.159Z,112.30
2018-10-07T01:45:39.157Z,120.50
2018-10-07T01:46:39.136Z,141.30
2018-10-07T01:47:39.138Z,144.10
2018-10-07T01:48:39.133Z,148.00
2018-10-07T01:49:39.126Z,150.40
2018-10-07T01:50:39.097Z,163.60
2018-10-07T01:51:39.084Z,137.10
2018-10-07T01:52:39.070Z,165.60
2018-10-07T01:53:39.075Z,147.10
2018-10-07T01:54:39.064Z,139.90
2018-10-07T01:55:39.042Z,192.10
2018-10-07T01:56:39.040Z,171.40
2018-10-07T01:57:39.024Z,178.60
2018-10-07T01:58:39.042Z,160.10
2018-10-07T01:59:38.999Z,164.90
2018-10-07T02:00:38.983Z,170.10
2018-10-07T02:01:38.971Z,176.40
2018-10-07T02:02:38.965Z,189.40
2018-10-07T02:03:38.971Z,184.20
2018-10-07T02:04:38.939Z,178.90
2018-10-07T02:05:38.926Z,215.80
2018-10-07T02:06:38.917Z,186.00
2018-10-07T02:07:38.915Z,161.00
2018-10-07T02:08:38.931Z,178.40
2018-10-07T02:09:38.889Z,191.30
2018-10-07T02:10:38.898Z,175.70
2018-10-07T02:11:38.866Z,204.50
2018-10-07T02:12:38.852Z,181.10
2018-10-07T02:13:38.858Z,195.50
2018-10-07T02:14:38.847Z,182.00
2018-10-07T02:15:38.821Z,179.30
2018-10-07T02:16:38.819Z,168.50
2018-10-07T02:17:38.807Z,155.70
2018-10-07T02:18:38.802Z,177.50
2018-10-07T02:19:38.781Z,188.00
2018-10-07T02:20:38.788Z,179.70
2018-10-07T02:21:38.762Z,198.40
2018-10-07T02:22:38.748Z,192.00
2018-10-07T02:23:38.735Z,180.00
2018-10-07T02:24:38.722Z,186.40
2018-10-07T02:25:38.726Z,185.80
2018-10-07T02:26:38.698Z,181.90
2018-10-07T02:27:38.711Z,197.30
2018-10-07T02:28:38.701Z,167.80
2018-10-07T02:29:38.689Z,206.80
2018-10-07T02:30:38.661Z,173.30
2018-10-07T02:31:38.649Z,150.90
2018-10-07T02:32:38.639Z,159.80
2018-10-07T02:33:38.640Z,184.80
2018-10-07T02:34:38.618Z,186.40
2018-10-07T02:35:38.628Z,174.20
2018-10-07T02:36:38.591Z,166.70
2018-10-07T02:37:38.579Z,202.70
2018-10-07T02:38:38.588Z,198.70
2018-10-07T02:39:38.560Z,201.70
2018-10-07T02:40:38.556Z,193.00
2018-10-07T02:41:38.542Z,200.80
2018-10-07T02:42:38.532Z,170.30
2018-10-07T02:43:38.538Z,189.70
2018-10-07T02:44:38.508Z,176.20
2018-10-07T02:45:38.493Z,166.50
2018-10-07T02:46:38.482Z,196.90
2018-10-07T02:47:38.476Z,228.50
2018-10-07T02:48:38.491Z,187.90
2018-10-07T02:49:38.455Z,171.10
2018-10-07T02:50:38.438Z,162.00
2018-10-07T02:51:38.429Z,196.20
2018-10-07T02:52:38.422Z,203.60
2018-10-07T02:53:38.420Z,173.40
2018-10-07T02:54:38.447Z,185.50
2018-10-07T02:55:38.415Z,178.90
2018-10-07T02:56:38.389Z,161.70
2018-10-07T02:57:38.365Z,174.30
2018-10-07T02:58:38.351Z,193.00
2018-10-07T02:59:38.344Z,166.30
2018-10-07T03:00:38.352Z,181.30
2018-10-07T03:01:38.327Z,173.50
2018-10-07T03:02:38.315Z,198.70
2018-10-07T03:03:38.328Z,158.70
2018-10-07T03:04:38.355Z,156.00
2018-10-07T03:05:38.300Z,185.10
2018-10-07T03:06:38.271Z,187.20
2018-10-07T03:07:38.259Z,181.50
2018-10-07T03:08:38.268Z,164.00
2018-10-07T03:09:38.232Z,194.90
2018-10-07T03:10:38.222Z,170.30
2018-10-07T03:11:38.232Z,188.50
2018-10-07T03:12:38.204Z,183.90
2018-10-07T03:13:38.212Z,190.80
2018-10-07T03:14:38.217Z,169.40
2018-10-07T03:15:38.173Z,162.10
2018-10-07T03:16:38.176Z,181.00
2018-10-07T03:17:38.146Z,176.80
2018-10-07T03:18:38.135Z,172.60
2018-10-07T03:19:38.166Z,169.50
2018-10-07T03:20:38.121Z,162.10
2018-10-07T03:21:38.110Z,167.60
2018-10-07T03:22:38.096Z,180.50
2018-10-07T03:23:38.105Z,190.90
2018-10-07T03:24:38.098Z,173.30
2018-10-07T03:25:38.080Z,152.60
2018-10-07T03:26:38.057Z,157.70
2018-10-07T03:27:38.043Z,151.40
2018-10-07T03:28:38.030Z,141.70
2018-10-07T03:29:38.105Z,155.80
2018-10-07T03:30:38.008Z,151.10
2018-10-07T03:31:37.997Z,148.50
2018-10-07T03:32:37.998Z,151.40
2018-10-07T03:33:37.981Z,147.50
2018-10-07T03:34:37.988Z,153.90
2018-10-07T03:35:37.957Z,161.10
2018-10-07T03:36:37.945Z,152.30
2018-10-07T03:37:37.931Z,166.20
2018-10-07T03:38:37.929Z,157.90
2018-10-07T03:39:37.937Z,159.40
2018-10-07T03:40:37.901Z,163.00
2018-10-07T03:41:37.887Z,152.70
2018-10-07T03:42:37.882Z,164.90
2018-10-07T03:43:37.868Z,139.80
2018-10-07T03:44:37.880Z,149.90
2018-10-07T03:45:37.853Z,153.20
2018-10-07T03:46:37.857Z,137.90
2018-10-07T03:47:37.827Z,129.10
2018-10-07T03:48:37.823Z,137.90
2018-10-07T03:49:37.820Z,131.40
2018-10-07T03:50:37.790Z,131.80
2018-10-07T03:51:37.781Z,124.70
2018-10-07T03:52:37.772Z,126.70
2018-10-07T03:53:37.769Z,116.40
2018-10-07T03:54:37.774Z,118.90
2018-10-07T03:55:37.738Z,114.70
2018-10-07T03:56:37.729Z,112.40
2018-10-07T03:57:37.722Z,107.30
2018-10-07T03:58:37.711Z,105.00
2018-10-07T03:59:37.715Z,91.50
2018-10-07T04:00:37.686Z,84.60
2018-10-07T04:01:37.685Z,76.30
2018-10-07T04:02:37.663Z,76.60
2018-10-07T04:03:37.654Z,71.30
2018-10-07T04:04:37.663Z,67.00
2018-10-07T04:05:37.633Z,65.60
2018-10-07T04:06:37.624Z,63.80
2018-10-07T04:07:37.609Z,61.30
2018-10-07T04:08:37.594Z,62.20
2018-10-07T04:09:37.605Z,64.70
2018-10-07T04:10:37.592Z,56.40
2018-10-07T04:11:37.584Z,54.80
2018-10-07T04:12:37.573Z,55.40
2018-10-07T04:13:37.612Z,48.80
2018-10-07T04:14:37.550Z,47.40
2018-10-07T04:15:37.519Z,47.40
2018-10-07T04:16:37.530Z,44.40
2018-10-07T04:17:37.504Z,44.10
2018-10-07T04:18:37.502Z,45.20
2018-10-07T04:19:37.509Z,47.10
2018-10-07T04:20:37.488Z,46.60
2018-10-07T04:21:37.451Z,43.90
2018-10-07T04:22:37.440Z,45.30
2018-10-07T04:23:37.433Z,44.90
2018-10-07T04:24:37.440Z,43.40
2018-10-07T04:25:37.416Z,45.30
2018-10-07T04:26:37.403Z,45.10
2018-10-07T04:27:37.389Z,44.40
2018-10-07T04:28:37.391Z,44.00
2018-10-07T04:29:37.433Z,46.30
2018-10-07T04:30:37.360Z,44.20
2018-10-07T04:31:37.348Z,50.50
2018-10-07T04:32:37.334Z,47.70
2018-10-07T04:33:37.322Z,52.10
2018-10-07T04:34:37.346Z,49.40
2018-10-07T04:35:37.304Z,47.90
2018-10-07T04:36:37.327Z,48.40
2018-10-07T04:37:37.301Z,49.60
2018-10-07T04:38:37.279Z,46.80
2018-10-07T04:39:37.283Z,51.30
2018-10-07T04:40:37.248Z,51.60
2018-10-07T04:41:37.255Z,53.20
2018-10-07T04:42:37.227Z,51.60
2018-10-07T04:43:37.218Z,55.90
2018-10-07T04:44:37.220Z,52.50
2018-10-07T04:45:37.195Z,44.30
2018-10-07T04:46:37.182Z,45.30
2018-10-07T04:47:37.198Z,43.20
2018-10-07T04:48:37.164Z,38.30
2018-10-07T04:49:37.178Z,38.80
2018-10-07T04:50:37.141Z,40.10
2018-10-07T04:51:37.137Z,37.60
2018-10-07T04:52:37.120Z,35.60
2018-10-07T04:53:37.108Z,38.10
2018-10-07T04:54:37.113Z,38.20
2018-10-07T04:55:37.083Z,34.20
2018-10-07T04:56:37.079Z,41.50
2018-10-07T04:57:37.086Z,33.70
2018-10-07T04:58:37.060Z,35.30
2018-10-07T04:59:37.040Z,29.70
2018-10-07T05:00:37.040Z,34.60
2018-10-07T05:01:37.023Z,30.30
2018-10-07T05:02:37.029Z,30.40
2018-10-07T05:03:37.009Z,29.60
2018-10-07T05:04:37.005Z,32.00
2018-10-07T05:05:36.983Z,30.10
2018-10-07T05:06:36.965Z,34.30
2018-10-07T05:07:36.993Z,30.20
2018-10-07T05:08:36.965Z,29.40
2018-10-07T05:09:36.939Z,27.40
2018-10-07T05:10:36.925Z,29.50
2018-10-07T05:11:36.917Z,27.00
2018-10-07T05:12:36.945Z,28.80
2018-10-07T05:13:36.896Z,30.40
2018-10-07T05:14:36.901Z,28.00
2018-10-07T05:15:36.875Z,30.20
2018-10-07T05:16:36.873Z,29.20
2018-10-07T05:17:36.849Z,32.10
2018-10-07T05:18:36.843Z,37.10
2018-10-07T05:19:36.845Z,30.60
2018-10-07T05:20:36.826Z,28.00
2018-10-07T05:21:36.806Z,37.10
2018-10-07T05:22:36.795Z,31.80
2018-10-07T05:23:36.801Z,31.60
2018-10-07T05:24:36.769Z,31.50
2018-10-07T05:25:36.760Z,27.70
2018-10-07T05:26:36.750Z,24.80
2018-10-07T05:27:36.740Z,29.80
2018-10-07T05:28:36.751Z,26.70
2018-10-07T05:29:36.720Z,30.20
2018-10-07T05:30:36.706Z,27.50
2018-10-07T05:31:36.692Z,25.40
2018-10-07T05:32:36.691Z,28.00
2018-10-07T05:33:36.718Z,25.10
2018-10-07T05:34:36.669Z,24.50
2018-10-07T05:35:36.661Z,27.40
2018-10-07T05:36:36.638Z,27.00
2018-10-07T05:37:36.634Z,26.80
2018-10-07T05:38:36.665Z,26.60
2018-10-07T05:39:36.693Z,23.00
2018-10-07T05:40:36.647Z,22.60
2018-10-07T05:41:36.596Z,28.40
2018-10-07T05:42:36.578Z,24.10
2018-10-07T05:43:36.578Z,22.20
2018-10-07T05:44:36.708Z,20.40
2018-10-07T05:45:36.567Z,21.20
2018-10-07T05:46:36.535Z,21.10
2018-10-07T05:47:36.529Z,23.00
2018-10-07T05:48:36.542Z,18.60
2018-10-07T05:49:36.535Z,19.60
2018-10-07T05:50:36.489Z,21.20
2018-10-07T05:51:36.480Z,19.10
2018-10-07T05:52:36.485Z,21.50
2018-10-07T05:53:36.476Z,17.20
2018-10-07T05:54:36.468Z,18.80
2018-10-07T05:55:36.510Z,18.10
2018-10-07T05:56:36.421Z,19.10
2018-10-07T05:57:36.413Z,17.70
2018-10-07T05:58:36.403Z,19.50
2018-10-07T05:59:36.412Z,21.70
2018-10-07T06:00:36.415Z,20.60
2018-10-07T06:01:36.406Z,19.50
2018-10-07T06:02:36.362Z,19.90
2018-10-07T06:03:36.362Z,23.50
2018-10-07T06:04:36.362Z,28.90
2018-10-07T06:05:36.329Z,26.30
2018-10-07T06:06:36.321Z,26.00
2018-10-07T06:07:36.390Z,23.60
2018-10-07T06:08:37.400Z,26.90
2018-10-07T06:09:36.319Z,25.80
2018-10-07T06:10:36.297Z,30.30
2018-10-07T06:11:36.258Z,27.30
2018-10-07T06:12:36.257Z,26.90
2018-10-07T06:13:36.241Z,27.10
2018-10-07T06:14:36.234Z,25.90
2018-10-07T06:15:36.263Z,24.90
2018-10-07T06:16:36.208Z,25.40
2018-10-07T06:17:36.195Z,27.40
2018-10-07T06:18:36.186Z,27.70
2018-10-07T06:19:36.177Z,27.80
2018-10-07T06:20:36.177Z,29.20
2018-10-07T06:21:36.205Z,26.60
2018-10-07T06:22:36.147Z,26.30
2018-10-07T06:23:36.133Z,26.40
2018-10-07T06:24:36.122Z,25.30
2018-10-07T06:25:36.402Z,24.20
2018-10-07T06:26:36.105Z,23.10
2018-10-07T06:27:36.097Z,24.20
2018-10-07T06:28:36.072Z,23.90
2018-10-07T06:29:36.080Z,23.40
2018-10-07T06:30:36.085Z,20.60
2018-10-07T06:31:36.044Z,21.30
2018-10-07T06:32:36.072Z,22.00
2018-10-07T06:33:36.023Z,18.90
2018-10-07T06:34:36.017Z,17.20
2018-10-07T06:35:36.029Z,18.30
2018-10-07T06:36:35.996Z,18.10
2018-10-07T06:37:35.990Z,16.40
2018-10-07T06:38:36.003Z,16.50
2018-10-07T06:39:35.974Z,16.30
2018-10-07T06:40:35.980Z,17.00
2018-10-07T06:41:35.934Z,17.90
2018-10-07T06:42:35.934Z,15.50
2018-10-07T06:43:35.912Z,15.00
2018-10-07T06:44:35.906Z,14.20
2018-10-07T06:45:35.911Z,14.90
2018-10-07T06:46:35.884Z,16.00
2018-10-07T06:47:35.873Z,13.60
2018-10-07T06:48:35.856Z,15.80
2018-10-07T06:49:35.846Z,14.00
2018-10-07T06:50:35.859Z,18.20
2018-10-07T06:51:35.832Z,18.10
2018-10-07T06:52:35.812Z,12.70
2018-10-07T06:53:35.808Z,13.10
2018-10-07T06:54:35.794Z,14.80
2018-10-07T06:55:35.798Z,12.50
2018-10-07T06:56:35.790Z,13.30
2018-10-07T06:57:35.763Z,12.60
2018-10-07T06:58:35.751Z,12.20
2018-10-07T06:59:35.795Z,14.50
2018-10-07T07:00:35.741Z,12.60
2018-10-07T07:01:35.716Z,11.70
2018-10-07T07:02:35.845Z,11.70
2018-10-07T07:03:35.727Z,11.80
2018-10-07T07:04:35.689Z,12.60
2018-10-07T07:05:35.694Z,13.60
2018-10-07T07:06:35.745Z,11.80
2018-10-07T07:07:35.651Z,14.60
2018-10-07T07:08:35.646Z,11.50
2018-10-07T07:09:35.632Z,13.30
2018-10-07T07:10:35.640Z,10.40
2018-10-07T07:11:35.613Z,10.70
2018-10-07T07:12:35.596Z,8.20
2018-10-07T07:13:35.711Z,9.70
2018-10-07T07:14:35.580Z,10.20
2018-10-07T07:15:35.596Z,8.00
2018-10-07T07:16:35.558Z,8.00
2018-10-07T07:17:35.548Z,8.00
2018-10-07T07:18:35.552Z,8.80
2018-10-07T07:19:35.554Z,7.70
2018-10-07T07:20:35.508Z,8.70
2018-10-07T07:21:35.516Z,6.30
2018-10-07T07:22:35.501Z,9.20
2018-10-07T07:23:35.493Z,6.90
2018-10-07T07:24:35.490Z,7.50
2018-10-07T07:25:35.518Z,4.60
2018-10-07T07:26:35.472Z,5.40
2018-10-07T07:27:35.447Z,4.90
2018-10-07T07:28:35.491Z,7.50
2018-10-07T07:29:35.503Z,5.00
2018-10-07T07:30:35.422Z,5.20
2018-10-07T07:31:35.424Z,4.70
2018-10-07T07:32:35.379Z,3.20
2018-10-07T07:33:35.375Z,5.50
2018-10-07T07:34:35.374Z,5.60
2018-10-07T07:35:35.361Z,4.60
2018-10-07T07:36:35.500Z,5.00
2018-10-07T07:37:35.328Z,4.60
2018-10-07T07:38:35.463Z,3.50
2018-10-07T07:39:35.440Z,3.60
2018-10-07T07:40:35.318Z,6.40
2018-10-07T07:41:35.305Z,4.00
2018-10-07T07:42:35.300Z,5.40
2018-10-07T07:43:35.266Z,4.30
2018-10-07T07:44:35.253Z,4.90
2018-10-07T07:45:35.273Z,3.90
2018-10-07T07:46:35.228Z,5.40
2018-10-07T07:47:35.231Z,4.60
2018-10-07T07:48:35.215Z,3.90
2018-10-07T07:49:35.201Z,5.20
2018-10-07T07:50:35.186Z,4.70
2018-10-07T07:51:35.179Z,4.40
2018-10-07T07:52:35.192Z,5.10
2018-10-07T07:53:35.155Z,6.30
2018-10-07T07:54:35.147Z,4.60
2018-10-07T07:55:35.153Z,5.50
2018-10-07T07:56:35.125Z,4.40
2018-10-07T07:57:35.111Z,6.20
2018-10-07T07:58:35.099Z,3.90
2018-10-07T07:59:35.124Z,6.00
2018-10-07T08:00:35.092Z,3.90
2018-10-07T08:01:35.069Z,4.10
2018-10-07T08:02:35.083Z,4.90
2018-10-07T08:03:35.056Z,4.50
2018-10-07T08:04:35.034Z,4.00
2018-10-07T08:05:35.048Z,4.20
2018-10-07T08:06:35.025Z,5.00
2018-10-07T08:07:35.001Z,5.00
2018-10-07T08:08:35.025Z,5.50
2018-10-07T08:09:34.992Z,3.90
2018-10-07T08:10:34.988Z,4.20
2018-10-07T08:11:34.959Z,6.40
2018-10-07T08:12:34.956Z,6.40
2018-10-07T08:13:34.956Z,5.00
2018-10-07T08:14:34.939Z,4.70
2018-10-07T08:15:34.945Z,4.70
2018-10-07T08:16:34.906Z,4.60
2018-10-07T08:17:34.900Z,4.50
2018-10-07T08:18:34.888Z,4.10
2018-10-07T08:19:34.888Z,4.20
2018-10-07T08:20:34.869Z,4.70
2018-10-07T08:21:34.854Z,3.90
2018-10-07T08:22:34.860Z,5.40
2018-10-07T08:23:34.881Z,3.70
2018-10-07T08:24:34.817Z,5.30
2018-10-07T08:25:34.808Z,4.80
2018-10-07T08:26:34.829Z,4.10
2018-10-07T08:27:34.814Z,4.30
2018-10-07T08:28:34.775Z,5.10
2018-10-07T08:29:34.839Z,3.70
2018-10-07T08:30:34.755Z,5.00
2018-10-07T08:31:34.746Z,5.70
2018-10-07T08:32:34.759Z,4.20
2018-10-07T08:33:34.728Z,3.30
2018-10-07T08:34:34.717Z,3.40
2018-10-07T08:35:34.706Z,4.30
2018-10-07T08:36:34.687Z,3.50
2018-10-07T08:37:34.698Z,3.80
2018-10-07T08:38:34.680Z,5.30
2018-10-07T08:39:34.654Z,4.20
2018-10-07T08:40:34.653Z,5.70
2018-10-07T08:41:34.639Z,3.70
2018-10-07T08:42:34.641Z,3.70
2018-10-07T08:43:34.610Z,3.60
2018-10-07T08:44:34.607Z,4.40
2018-10-07T08:45:34.594Z,3.80
2018-10-07T08:46:34.602Z,5.20
2018-10-07T08:47:34.575Z,3.40
2018-10-07T08:48:34.572Z,3.40
2018-10-07T08:49:34.551Z,5.20
2018-10-07T08:50:34.540Z,3.20
2018-10-07T08:51:34.553Z,4.00
2018-10-07T08:52:34.518Z,3.10
2018-10-07T08:53:34.521Z,3.80
2018-10-07T08:54:34.498Z,3.90
2018-10-07T08:55:34.481Z,4.80
2018-10-07T08:56:34.540Z,4.30
2018-10-07T08:57:34.466Z,3.10
2018-10-07T08:58:34.458Z,3.70
2018-10-07T08:59:34.441Z,4.90
2018-10-07T09:00:34.439Z,3.00
2018-10-07T09:01:34.448Z,4.60
2018-10-07T09:02:34.411Z,2.90
2018-10-07T09:03:34.402Z,3.30
2018-10-07T09:04:34.384Z,2.70
2018-10-07T09:05:34.383Z,4.80
2018-10-07T09:06:34.387Z,2.70
2018-10-07T09:07:34.361Z,4.10
2018-10-07T09:08:34.355Z,3.70
2018-10-07T09:09:34.353Z,4.30
2018-10-07T09:10:34.324Z,3.70
2018-10-07T09:11:34.335Z,3.60
2018-10-07T09:12:34.302Z,3.40
2018-10-07T09:13:34.340Z,2.90
2018-10-07T09:14:34.306Z,2.00
2018-10-07T09:15:34.319Z,3.30
2018-10-07T09:16:34.304Z,3.50
2018-10-07T09:17:34.249Z,2.60
2018-10-07T09:18:34.241Z,4.80
2018-10-07T09:19:34.225Z,3.20
2018-10-07T09:20:34.220Z,2.20
2018-10-07T09:21:34.228Z,4.20
2018-10-07T09:22:34.195Z,2.10
2018-10-07T09:23:34.187Z,2.60
2018-10-07T09:24:34.170Z,2.30
2018-10-07T09:25:34.161Z,3.00
2018-10-07T09:26:34.151Z,2.10
2018-10-07T09:27:34.175Z,4.00
2018-10-07T09:28:34.134Z,2.30
2018-10-07T09:29:34.120Z,3.30
2018-10-07T09:30:34.118Z,2.10
2018-10-07T09:31:34.153Z,2.10
2018-10-07T09:32:34.196Z,1.90
2018-10-07T09:33:34.077Z,2.10
2018-10-07T09:34:34.070Z,1.70
2018-10-07T09:35:34.065Z,2.70
2018-10-07T09:36:34.072Z,2.90
2018-10-07T09:37:34.042Z,2.60
2018-10-07T09:38:34.022Z,3.00
2018-10-07T09:39:34.085Z,2.30
2018-10-07T09:40:34.003Z,3.80
2018-10-07T09:41:34.013Z,2.70
2018-10-07T09:42:33.980Z,2.40
2018-10-07T09:43:33.984Z,3.00
2018-10-07T09:44:33.952Z,2.80
2018-10-07T09:45:33.945Z,2.20
2018-10-07T09:46:33.946Z,3.20
2018-10-07T09:47:33.949Z,2.70
2018-10-07T09:48:33.915Z,1.40
2018-10-07T09:49:33.903Z,2.10
2018-10-07T09:50:33.895Z,2.10
2018-10-07T09:51:33.924Z,3.40
2018-10-07T09:52:33.873Z,3.80
2018-10-07T09:53:33.871Z,2.00
2018-10-07T09:54:33.848Z,2.30
2018-10-07T09:55:33.841Z,2.50
2018-10-07T09:56:33.838Z,2.00
2018-10-07T09:57:33.820Z,2.20
2018-10-07T09:58:33.808Z,2.20
2018-10-07T09:59:33.789Z,2.00
2018-10-07T10:00:33.784Z,2.10
2018-10-07T10:01:33.792Z,1.60
2018-10-07T10:02:33.758Z,3.40
2018-10-07T10:03:33.749Z,2.10
2018-10-07T10:04:33.830Z,1.30
2018-10-07T10:05:33.727Z,2.90
2018-10-07T10:06:33.738Z,2.10
2018-10-07T10:07:33.708Z,1.90
2018-10-07T10:08:33.689Z,1.80
2018-10-07T10:09:33.683Z,1.30
2018-10-07T10:10:33.689Z,1.80
2018-10-07T10:11:33.676Z,1.90
2018-10-07T10:12:33.830Z,1.60
2018-10-07T10:13:33.640Z,1.30
2018-10-07T10:14:33.645Z,2.70
2018-10-07T10:15:33.622Z,1.90
2018-10-07T10:16:33.635Z,2.30
2018-10-07T10:17:33.611Z,1.80
2018-10-07T10:18:33.585Z,2.30
2018-10-07T10:19:33.615Z,1.80
2018-10-07T10:20:33.558Z,1.60
2018-10-07T10:21:33.577Z,2.40
2018-10-07T10:22:33.543Z,1.90
2018-10-07T10:23:33.526Z,1.20
2018-10-07T10:24:33.547Z,1.30
2018-10-07T10:25:33.511Z,1.70
2018-10-07T10:26:33.525Z,2.30
2018-10-07T10:27:33.520Z,2.50
2018-10-07T10:28:33.473Z,1.90
2018-10-07T10:29:33.468Z,1.20
2018-10-07T10:30:33.454Z,1.40
2018-10-07T10:31:33.440Z,2.40
2018-10-07T10:32:33.486Z,2.10
2018-10-07T10:33:33.452Z,1.20
2018-10-07T10:34:33.424Z,1.30
2018-10-07T10:35:33.396Z,1.60
2018-10-07T10:36:33.392Z,1.30
2018-10-07T10:37:33.402Z,1.50
2018-10-07T10:38:33.370Z,1.20
2018-10-07T10:39:33.425Z,1.70
2018-10-07T10:40:33.343Z,1.30
2018-10-07T10:41:33.334Z,1.20
2018-10-07T10:42:33.324Z,2.20
2018-10-07T10:43:33.337Z,1.10
2018-10-07T10:44:33.308Z,1.50
2018-10-07T10:45:33.295Z,1.40
2018-10-07T10:46:33.284Z,1.10
2018-10-07T10:47:33.274Z,1.00
2018-10-07T10:48:33.259Z,1.40
2018-10-07T10:49:33.266Z,1.10
2018-10-07T10:50:33.259Z,2.20
2018-10-07T10:51:33.234Z,1.40
2018-10-07T10:52:33.376Z,1.20
2018-10-07T10:53:33.209Z,1.40
2018-10-07T10:54:33.222Z,1.00
2018-10-07T10:55:33.184Z,1.80
2018-10-07T10:56:33.182Z,1.30
2018-10-07T10:57:33.167Z,1.10
2018-10-07T10:58:33.154Z,0.80
2018-10-07T10:59:33.174Z,1.60
2018-10-07T11:00:33.144Z,0.80
2018-10-07T11:01:33.122Z,1.20
2018-10-07T11:02:33.117Z,0.80
2018-10-07T11:03:33.102Z,1.80
2018-10-07T11:04:33.135Z,1.00
2018-10-07T11:05:33.097Z,1.30
2018-10-07T11:06:33.064Z,0.90
2018-10-07T11:07:33.054Z,0.90
2018-10-07T11:08:33.050Z,1.90
2018-10-07T11:09:33.038Z,2.30
2018-10-07T11:10:33.050Z,1.50
2018-10-07T11:11:33.018Z,2.20
2018-10-07T11:12:33.003Z,1.00
2018-10-07T11:13:32.992Z,1.40
2018-10-07T11:14:32.986Z,1.10
2018-10-07T11:15:33.009Z,1.20
2018-10-07T11:16:32.979Z,1.70
2018-10-07T11:17:32.950Z,1.10
2018-10-07T11:18:32.938Z,2.10
2018-10-07T11:19:32.975Z,2.00
2018-10-07T11:20:32.930Z,0.90
2018-10-07T11:21:32.907Z,1.20
2018-10-07T11:22:32.895Z,1.60
2018-10-07T11:23:32.902Z,2.80
2018-10-07T11:24:32.870Z,1.50
2018-10-07T11:25:32.879Z,2.70
2018-10-07T11:26:32.869Z,0.90
2018-10-07T11:27:32.841Z,1.00
2018-10-07T11:28:32.836Z,1.40
2018-10-07T11:29:32.822Z,1.20
2018-10-07T11:30:32.810Z,1.00
2018-10-07T11:31:32.827Z,1.00
2018-10-07T11:32:32.789Z,1.40
2018-10-07T11:33:32.776Z,0.80
2018-10-07T11:34:32.766Z,1.30
2018-10-07T11:35:32.761Z,1.00
2018-10-07T11:36:32.770Z,2.30
2018-10-07T11:37:32.753Z,1.60
2018-10-07T11:38:32.723Z,1.40
2018-10-07T11:39:32.710Z,1.30
2018-10-07T11:40:32.709Z,1.10
2018-10-07T11:41:32.715Z,1.10
2018-10-07T11:42:32.687Z,1.60
2018-10-07T11:43:32.675Z,1.30
2018-10-07T11:44:32.659Z,1.10
2018-10-07T11:45:32.655Z,1.40
2018-10-07T11:46:32.656Z,2.10
2018-10-07T11:47:32.645Z,2.20
2018-10-07T11:48:32.642Z,1.20
2018-10-07T11:49:32.615Z,2.50
2018-10-07T11:50:32.596Z,0.80
2018-10-07T11:51:32.591Z,0.80
2018-10-07T11:52:32.573Z,1.20
2018-10-07T11:53:32.578Z,1.10
2018-10-07T11:54:32.554Z,1.00
2018-10-07T11:55:32.544Z,1.00
2018-10-07T11:56:32.548Z,2.10
2018-10-07T11:57:32.541Z,1.30
2018-10-07T11:58:32.525Z,1.80
2018-10-07T11:59:32.496Z,1.00
2018-10-07T12:00:32.491Z,1.40
2018-10-07T12:01:32.495Z,1.10
2018-10-07T12:02:32.482Z,1.70
2018-10-07T12:03:32.475Z,1.50
2018-10-07T12:04:32.440Z,0.90
2018-10-07T12:05:32.435Z,1.50
2018-10-07T12:06:32.421Z,1.80
2018-10-07T12:07:32.408Z,1.40
2018-10-07T12:08:32.420Z,1.80
2018-10-07T12:09:32.410Z,1.80
2018-10-07T12:10:32.381Z,5.00
2018-10-07T12:11:32.364Z,1.70
2018-10-07T12:12:32.358Z,1.10
2018-10-07T12:13:32.347Z,0.80
2018-10-07T12:14:32.359Z,1.50
2018-10-07T12:15:32.329Z,1.50
2018-10-07T12:16:32.376Z,1.70
2018-10-07T12:17:32.320Z,1.00
2018-10-07T12:18:32.335Z,1.00
2018-10-07T12:19:32.281Z,1.00
2018-10-07T12:20:32.277Z,1.40
2018-10-07T12:21:32.263Z,0.90
2018-10-07T12:22:32.257Z,1.00
2018-10-07T12:23:32.261Z,1.50
2018-10-07T12:24:32.226Z,1.00
2018-10-07T12:25:32.218Z,1.50
2018-10-07T12:26:32.211Z,1.10
2018-10-07T12:27:32.226Z,0.80
2018-10-07T12:28:32.206Z,1.20
2018-10-07T12:29:32.176Z,1.20
2018-10-07T12:30:32.171Z,0.80
2018-10-07T12:31:32.149Z,1.00
2018-10-07T12:32:32.146Z,1.50
2018-10-07T12:33:32.139Z,1.70
2018-10-07T12:34:33.590Z,2.50
2018-10-07T12:35:32.118Z,1.80
2018-10-07T12:36:32.126Z,1.70
2018-10-07T12:37:32.093Z,2.70
2018-10-07T12:38:32.124Z,1.70
2018-10-07T12:39:32.121Z,2.30
2018-10-07T12:40:32.114Z,2.00
2018-10-07T12:41:32.105Z,1.10
2018-10-07T12:42:32.095Z,1.10
2018-10-07T12:43:32.048Z,1.20
2018-10-07T12:44:32.017Z,1.30
2018-10-07T12:45:32.006Z,1.80
2018-10-07T12:46:32.008Z,1.40
2018-10-07T12:47:32.020Z,0.80
2018-10-07T12:48:31.968Z,1.50
2018-10-07T12:49:31.979Z,1.10
2018-10-07T12:50:31.950Z,1.00
2018-10-07T12:51:31.934Z,2.80
2018-10-07T12:52:31.930Z,1.10
2018-10-07T12:53:31.918Z,1.30
2018-10-07T12:54:31.932Z,1.50
2018-10-07T12:55:31.899Z,1.60
2018-10-07T12:56:31.881Z,1.00
2018-10-07T12:57:32.004Z,1.20
2018-10-07T12:58:31.865Z,2.10
2018-10-07T12:59:31.886Z,2.00